createdAt,value
2018-09-26T00:01:02.141Z,1.40
2018-09-26T00:03:35.582Z,1.40
2018-09-26T00:06:03.700Z,1.43
2018-09-26T00:08:31.802Z,1.60
2018-09-26T00:10:59.897Z,1.50
2018-09-26T00:13:28.031Z,1.53
2018-09-26T00:15:56.102Z,1.30
2018-09-26T00:18:24.208Z,1.83
2018-09-26T00:20:52.320Z,1.33
2018-09-26T00:23:20.524Z,1.10
2018-09-26T00:25:48.592Z,1.10
2018-09-26T00:28:16.711Z,1.37
2018-09-26T00:30:44.802Z,1.30
2018-09-26T00:33:12.910Z,1.30
2018-09-26T00:35:41.102Z,1.67
2018-09-26T00:38:09.165Z,1.90
2018-09-26T00:40:37.260Z,1.30
2018-09-26T00:43:05.345Z,1.10
2018-09-26T00:45:33.423Z,1.20
2018-09-26T00:48:01.552Z,1.47
2018-09-26T00:50:29.623Z,1.50
2018-09-26T00:52:57.749Z,0.93
2018-09-26T00:55:26.793Z,1.30
2018-09-26T00:57:54.873Z,1.13
2018-09-26T01:00:22.952Z,0.93
2018-09-26T01:02:51.052Z,1.10
2018-09-26T01:05:19.122Z,1.20
2018-09-26T01:07:47.223Z,1.13
2018-09-26T01:10:15.305Z,1.53
2018-09-26T01:12:43.401Z,1.77
2018-09-26T01:15:11.502Z,1.67
2018-09-26T01:17:39.657Z,1.30
2018-09-26T01:20:08.185Z,1.60
2018-09-26T01:22:36.288Z,1.30
2018-09-26T01:25:04.380Z,1.40
2018-09-26T01:27:35.236Z,1.57
2018-09-26T01:30:04.952Z,1.30
2018-09-26T01:32:33.079Z,1.67
2018-09-26T01:35:01.394Z,1.50
2018-09-26T01:37:29.428Z,1.40
2018-09-26T01:39:57.878Z,1.57
2018-09-26T01:42:26.236Z,1.77
2018-09-26T01:44:54.408Z,1.03
2018-09-26T01:47:22.552Z,1.30
2018-09-26T01:49:50.632Z,1.27
2018-09-26T01:52:18.736Z,1.37
2018-09-26T01:54:46.821Z,1.37
2018-09-26T01:57:15.316Z,1.40
2018-09-26T01:59:43.397Z,1.23
2018-09-26T02:02:11.494Z,1.30
2018-09-26T02:04:39.607Z,1.53
2018-09-26T02:07:07.700Z,1.50
2018-09-26T02:09:35.787Z,2.17
2018-09-26T02:12:03.868Z,1.43
2018-09-26T02:14:31.974Z,1.03
2018-09-26T02:17:00.134Z,1.50
2018-09-26T02:19:28.211Z,1.23
2018-09-26T02:22:02.976Z,1.30
2018-09-26T02:24:31.112Z,1.10
2018-09-26T02:26:59.317Z,1.63
2018-09-26T02:29:27.988Z,1.97
2018-09-26T02:31:56.144Z,1.23
2018-09-26T02:34:24.217Z,1.07
2018-09-26T02:36:52.300Z,1.03
2018-09-26T02:39:20.453Z,1.20
2018-09-26T02:41:48.539Z,2.10
2018-09-26T02:44:16.710Z,1.30
2018-09-26T02:46:44.784Z,1.27
2018-09-26T02:49:12.869Z,1.20
2018-09-26T02:51:40.953Z,1.00
2018-09-26T02:54:09.041Z,1.37
2018-09-26T02:56:37.311Z,1.50
2018-09-26T02:59:06.677Z,1.83
2018-09-26T03:01:34.760Z,1.40
2018-09-26T03:04:02.860Z,1.90
2018-09-26T03:06:30.928Z,1.60
2018-09-26T03:08:59.004Z,1.30
2018-09-26T03:11:27.137Z,1.50
2018-09-26T03:13:55.160Z,1.03
2018-09-26T03:16:23.248Z,1.43
2018-09-26T03:18:51.327Z,1.20
2018-09-26T03:21:19.415Z,1.67
2018-09-26T03:23:47.507Z,1.53
2018-09-26T03:26:15.597Z,1.37
2018-09-26T03:28:43.691Z,1.20
2018-09-26T03:31:11.936Z,1.63
2018-09-26T03:33:40.057Z,1.30
2018-09-26T03:36:08.112Z,1.10
2018-09-26T03:38:36.200Z,1.40
2018-09-26T03:41:04.309Z,1.17
2018-09-26T03:43:32.417Z,1.47
2018-09-26T03:46:00.492Z,1.10
2018-09-26T03:48:28.582Z,1.30
2018-09-26T03:50:56.673Z,1.13
2018-09-26T03:53:24.769Z,1.10
2018-09-26T03:55:52.863Z,1.20
2018-09-26T03:58:21.053Z,1.43
2018-09-26T04:00:48.785Z,1.20
2018-09-26T04:03:16.856Z,1.40
2018-09-26T04:05:44.958Z,1.37
2018-09-26T04:08:13.041Z,1.40
2018-09-26T04:10:41.124Z,1.60
2018-09-26T04:13:09.243Z,1.10
2018-09-26T04:15:43.503Z,1.90
2018-09-26T04:18:11.745Z,1.50
2018-09-26T04:20:39.856Z,1.47
2018-09-26T04:23:07.925Z,1.03
2018-09-26T04:25:36.011Z,1.30
2018-09-26T04:28:04.125Z,1.70
2018-09-26T04:30:32.248Z,1.60
2018-09-26T04:33:00.463Z,2.10
2018-09-26T04:35:28.404Z,1.30
2018-09-26T04:37:56.521Z,1.20
2018-09-26T04:40:24.624Z,1.37
2018-09-26T04:42:52.766Z,1.40
2018-09-26T04:45:20.864Z,1.57
2018-09-26T04:47:48.949Z,1.80
2018-09-26T04:50:17.512Z,1.73
2018-09-26T04:52:45.804Z,1.80
2018-09-26T04:55:15.092Z,1.67
2018-09-26T04:57:43.188Z,1.80
2018-09-26T05:00:11.390Z,1.50
2018-09-26T05:02:39.484Z,1.93
2018-09-26T05:05:07.669Z,1.93
2018-09-26T05:07:36.099Z,2.03
2018-09-26T05:10:04.380Z,1.57
2018-09-26T05:12:32.467Z,2.33
2018-09-26T05:15:00.730Z,2.10
2018-09-26T05:17:28.820Z,1.93
2018-09-26T05:19:57.329Z,1.97
2018-09-26T05:22:25.912Z,1.60
2018-09-26T05:24:54.052Z,1.37
2018-09-26T05:27:22.188Z,1.43
2018-09-26T05:29:50.332Z,2.53
2018-09-26T05:32:18.404Z,1.60
2018-09-26T05:34:46.475Z,1.33
2018-09-26T05:37:14.858Z,1.57
2018-09-26T05:39:42.983Z,1.90
2018-09-26T05:42:11.072Z,2.00
2018-09-26T05:44:39.380Z,1.90
2018-09-26T05:47:08.128Z,1.90
2018-09-26T05:49:36.240Z,3.10
2018-09-26T05:52:04.654Z,2.57
2018-09-26T05:54:32.767Z,2.80
2018-09-26T05:57:01.900Z,2.67
2018-09-26T05:59:30.085Z,2.47
2018-09-26T06:01:58.121Z,2.40
2018-09-26T06:04:26.310Z,2.17
2018-09-26T06:06:54.500Z,2.43
2018-09-26T06:09:22.588Z,3.53
2018-09-26T06:11:50.676Z,2.20
2018-09-26T06:14:18.778Z,1.80
2018-09-26T06:16:46.844Z,2.23
2018-09-26T06:19:14.947Z,2.70
2018-09-26T06:21:43.139Z,2.03
2018-09-26T06:24:11.216Z,1.77
2018-09-26T06:26:39.303Z,2.17
2018-09-26T06:29:07.404Z,1.87
2018-09-26T06:31:35.560Z,2.20
2018-09-26T06:34:03.679Z,2.60
2018-09-26T06:36:31.789Z,2.13
2018-09-26T06:38:59.896Z,2.37
2018-09-26T06:41:27.980Z,3.10
2018-09-26T06:43:56.089Z,2.60
2018-09-26T15:10:52.152Z,2.10
2018-09-26T15:13:20.318Z,1.60
2018-09-26T15:15:48.444Z,1.87
2018-09-26T15:18:16.656Z,1.90
2018-09-26T15:20:44.861Z,1.87
2018-09-26T15:23:12.909Z,1.40
2018-09-26T15:25:41.040Z,1.50
2018-09-26T15:28:09.233Z,2.00
2018-09-26T15:30:37.340Z,1.63
2018-09-26T15:33:05.510Z,2.00
2018-09-26T15:35:33.734Z,1.80
2018-09-26T15:38:01.869Z,2.57
2018-09-26T15:40:30.060Z,2.00
2018-09-26T15:42:58.265Z,2.00
2018-09-26T15:45:26.420Z,1.90
2018-09-26T15:47:54.584Z,1.90
2018-09-26T15:50:22.904Z,1.93
2018-09-26T15:52:51.369Z,1.77
2018-09-26T15:55:19.543Z,2.57
2018-09-26T15:57:47.693Z,2.17
2018-09-26T16:00:15.956Z,2.47
2018-09-26T16:02:44.192Z,2.10
2018-09-26T16:05:12.287Z,2.60
2018-09-26T16:07:40.372Z,2.00
2018-09-26T16:10:08.506Z,2.03
2018-09-26T16:12:37.792Z,2.10
2018-09-26T16:15:05.901Z,2.10
2018-09-26T16:17:34.053Z,1.90
2018-09-26T16:20:02.176Z,1.90
2018-09-26T16:22:30.309Z,1.90
2018-09-26T16:24:58.451Z,2.00
2018-09-26T16:27:26.607Z,2.47
2018-09-26T16:29:54.712Z,2.63
2018-09-26T16:32:22.863Z,2.30
2018-09-26T16:34:50.936Z,2.70
2018-09-26T16:37:19.052Z,2.63
2018-09-26T16:39:47.145Z,2.60
2018-09-26T16:42:15.252Z,2.50
2018-09-26T16:44:43.303Z,3.00
2018-09-26T16:47:11.412Z,3.17
2018-09-26T16:49:39.533Z,3.03
2018-09-26T16:52:07.679Z,2.53
2018-09-26T16:54:35.776Z,2.43
2018-09-26T16:57:03.872Z,2.60
2018-09-26T16:59:31.953Z,2.63
2018-09-26T17:02:00.092Z,3.57
2018-09-26T17:04:28.180Z,2.10
2018-09-26T17:06:56.295Z,2.57
2018-09-26T17:09:24.433Z,2.90
2018-09-26T17:11:52.487Z,2.80
2018-09-26T17:14:20.199Z,2.70
2018-09-26T17:16:48.224Z,2.90
2018-09-26T17:19:16.370Z,2.60
2018-09-26T17:21:44.417Z,2.97
2018-09-26T17:24:12.559Z,3.33
2018-09-26T17:26:40.709Z,3.50
2018-09-26T17:29:08.796Z,4.27
2018-09-26T17:31:36.888Z,3.60
2018-09-26T17:34:05.047Z,3.80
2018-09-26T17:36:33.100Z,3.73
2018-09-26T17:39:01.188Z,5.83
2018-09-26T17:41:29.383Z,5.93
2018-09-26T17:43:57.519Z,6.27
2018-09-26T17:46:25.788Z,5.00
2018-09-26T17:48:53.781Z,4.40
2018-09-26T17:51:21.907Z,4.50
2018-09-26T17:53:49.981Z,4.40
2018-09-26T17:56:18.187Z,4.47
2018-09-26T17:58:46.257Z,3.80
2018-09-26T18:01:14.351Z,4.23
2018-09-26T18:03:42.436Z,3.87
2018-09-26T18:06:10.525Z,3.93
2018-09-26T18:08:38.810Z,3.83
2018-09-26T18:11:06.956Z,3.73
2018-09-26T18:13:35.031Z,4.83
2018-09-26T18:16:04.484Z,4.37
2018-09-26T18:18:32.693Z,4.00
2018-09-26T18:21:00.767Z,5.00
2018-09-26T18:23:28.945Z,3.90
2018-09-26T18:25:56.948Z,3.70
2018-09-26T18:28:25.041Z,4.47
2018-09-26T18:30:53.141Z,3.87
2018-09-26T18:33:21.318Z,4.33
2018-09-26T18:35:49.368Z,3.70
2018-09-26T18:38:17.493Z,4.70
2018-09-26T18:40:45.629Z,3.80
2018-09-26T18:43:13.924Z,4.20
2018-09-26T18:45:42.004Z,5.20
2018-09-26T18:48:10.193Z,4.40
2018-09-26T18:50:38.324Z,4.33
2018-09-26T18:53:06.544Z,5.00
2018-09-26T18:55:34.678Z,3.97
2018-09-26T18:58:02.759Z,3.40
2018-09-26T19:00:30.855Z,4.30
2018-09-26T19:02:59.257Z,3.60
2018-09-26T19:05:27.317Z,3.50
2018-09-26T19:07:55.865Z,3.70
2018-09-26T19:10:23.956Z,3.43
2018-09-26T19:12:52.059Z,4.20
2018-09-26T19:15:21.204Z,4.00
2018-09-26T19:17:48.808Z,3.23
2018-09-26T19:20:16.905Z,3.90
2018-09-26T19:22:45.112Z,3.30
2018-09-26T19:25:13.719Z,3.20
2018-09-26T19:27:41.804Z,3.73
2018-09-26T19:30:10.077Z,3.50
2018-09-26T19:32:38.173Z,4.13
2018-09-26T19:35:06.272Z,3.90
2018-09-26T19:37:34.367Z,4.10
2018-09-26T19:40:02.440Z,3.93
2018-09-26T19:42:30.521Z,3.80
2018-09-26T19:44:58.694Z,3.83
2018-09-26T19:47:26.972Z,3.97
2018-09-26T19:49:55.044Z,3.60
2018-09-26T19:52:23.124Z,4.03
2018-09-26T19:54:51.188Z,4.13
2018-09-26T19:57:20.270Z,3.33
2018-09-26T19:59:48.329Z,4.67
2018-09-26T20:02:16.405Z,4.10
2018-09-26T20:04:44.568Z,3.80
2018-09-26T20:07:12.660Z,3.63
2018-09-26T20:09:40.732Z,4.20
2018-09-26T20:12:08.805Z,4.77
2018-09-26T20:14:36.908Z,3.60
2018-09-26T20:17:05.005Z,4.17
2018-09-26T20:19:33.092Z,4.40
2018-09-26T20:22:01.273Z,4.20
2018-09-26T20:24:29.264Z,4.30
2018-09-26T20:26:57.516Z,3.83
2018-09-26T20:29:25.653Z,4.03
2018-09-26T20:31:53.601Z,4.10
2018-09-26T20:34:21.761Z,3.77
2018-09-26T20:36:49.831Z,3.43
2018-09-26T20:39:17.928Z,4.37
2018-09-26T20:41:46.008Z,3.20
2018-09-26T20:44:14.103Z,4.80
2018-09-26T20:46:42.222Z,3.53
2018-09-26T20:49:10.398Z,3.60
2018-09-26T20:51:38.478Z,4.37
2018-09-26T20:54:06.568Z,3.73
2018-09-26T20:56:34.708Z,3.77
2018-09-26T20:59:03.408Z,3.63
2018-09-26T21:01:31.576Z,3.83
2018-09-26T21:03:59.733Z,4.33
2018-09-26T21:06:27.871Z,3.80
2018-09-26T21:08:55.893Z,5.20
2018-09-26T21:11:23.976Z,4.50
2018-09-26T21:13:52.052Z,4.80
2018-09-26T21:16:20.151Z,4.63
2018-09-26T21:18:48.220Z,4.07
2018-09-26T21:21:16.367Z,4.27
2018-09-26T21:23:44.431Z,4.93
2018-09-26T21:26:12.509Z,4.93
2018-09-26T21:28:40.657Z,5.87
2018-09-26T21:31:08.812Z,4.20
2018-09-26T21:33:36.844Z,4.43
2018-09-26T21:36:05.958Z,5.17
2018-09-26T21:38:35.399Z,4.77
2018-09-26T21:41:03.933Z,4.63
2018-09-26T21:43:32.737Z,5.03
2018-09-26T21:46:01.960Z,5.07
2018-09-26T21:48:30.486Z,5.50
2018-09-26T21:51:00.151Z,4.87
2018-09-26T21:53:29.138Z,4.00
2018-09-26T21:55:57.775Z,4.80
2018-09-26T21:58:25.940Z,5.00
2018-09-26T22:00:59.073Z,4.07
2018-09-26T22:03:27.148Z,4.70
2018-09-26T22:05:55.229Z,4.37
2018-09-26T22:08:23.308Z,4.87
2018-09-26T22:10:51.705Z,3.90
2018-09-26T22:13:19.800Z,4.23
2018-09-26T22:15:47.920Z,4.53
2018-09-26T22:18:15.997Z,4.70
2018-09-26T22:20:44.084Z,4.63
2018-09-26T22:23:12.176Z,4.03
2018-09-26T22:25:41.428Z,4.20
2018-09-26T22:28:09.520Z,4.40
2018-09-26T22:30:37.593Z,4.60
2018-09-26T22:33:05.685Z,4.90
2018-09-26T22:35:33.774Z,4.70
2018-09-26T22:38:01.963Z,4.20
2018-09-26T22:40:30.132Z,4.67
2018-09-26T22:42:58.213Z,4.93
